Time;durP1;ratioP1;P1;durP2;ratioP2;P2;SDS_P1;SDS_P2;PMS_P1;PMS_P2;Temp;Humidity;BMP_temperature;BMP_pressure;BME280_temperature;BME280_humidity;BME280_pressure;Samples;Min_cycle;Max_cycle;Signal;HPM_P1;HPM_P2
2022/06/19 00:00:00;;;;;;;4.20;3.70;;;;;;;17.86;50.62;100812.16;117384;1185;23513;-51
2022/06/19 00:02:27;;;;;;;4.30;3.40;;;;;;;17.90;50.49;100809.52;117367;1185;24146;-57
2022/06/19 00:04:55;;;;;;;4.10;3.70;;;;;;;17.89;50.61;100811.35;117325;1180;22905;-57
2022/06/19 00:07:22;;;;;;;4.10;3.50;;;;;;;17.83;50.66;100815.11;117455;1184;22915;-52
2022/06/19 00:09:49;;;;;;;4.60;3.80;;;;;;;17.79;50.77;100816.85;117398;1182;21853;-57
2022/06/19 00:12:17;;;;;;;4.70;3.80;;;;;;;17.79;50.84;100818.45;117394;1185;21878;-51
2022/06/19 00:14:45;;;;;;;6.10;3.70;;;;;;;17.78;50.83;100814.05;117543;1183;23436;-51
2022/06/19 00:17:14;;;;;;;4.30;3.90;;;;;;;17.78;50.96;100818.48;117395;1181;22973;-58
2022/06/19 00:19:42;;;;;;;5.40;4.10;;;;;;;17.78;50.89;100820.98;117402;1184;23634;-51
2022/06/19 00:22:09;;;;;;;4.30;3.50;;;;;;;17.75;50.87;100820.72;117451;1183;22914;-58
2022/06/19 00:24:36;;;;;;;4.50;3.40;;;;;;;17.72;50.92;100821.88;117414;1186;23541;-52
2022/06/19 00:27:04;;;;;;;3.90;3.50;;;;;;;17.71;51.01;100820.14;117405;1185;21893;-57
2022/06/19 00:29:30;;;;;;;4.50;3.80;;;;;;;17.70;51.07;100820.17;117372;1184;21860;-50
2022/06/19 00:31:58;;;;;;;4.40;3.60;;;;;;;17.75;50.92;100824.27;117356;1184;24161;-57
2022/06/19 00:34:25;;;;;;;4.10;3.30;;;;;;;17.71;51.07;100820.69;117282;1185;22918;-57
2022/06/19 00:36:52;;;;;;;5.60;3.90;;;;;;;17.68;51.14;100823.80;117435;1182;24149;-57
2022/06/19 00:39:19;;;;;;;4.20;3.80;;;;;;;17.66;51.13;100821.02;117418;1183;21848;-57
2022/06/19 00:41:47;;;;;;;5.40;4.10;;;;;;;17.68;51.08;100822.56;117431;1186;22918;-51
2022/06/19 00:44:14;;;;;;;4.70;3.70;;;;;;;17.62;51.19;100821.35;117433;1181;22984;-51
2022/06/19 00:46:57;;;;;;;4.60;3.50;;;;;;;17.60;51.21;100820.88;117395;1186;21855;-57
2022/06/19 00:49:33;;;;;;;4.50;3.60;;;;;;;17.63;51.26;100824.16;117379;1184;22924;-51
2022/06/19 00:52:10;;;;;;;6.10;3.90;;;;;;;17.58;51.16;100825.73;117434;1184;21824;-51
2022/06/19 00:54:50;;;;;;;4.70;4.00;;;;;;;17.56;51.31;100829.00;117423;1185;23563;-57
2022/06/19 00:57:21;;;;;;;3.80;3.40;;;;;;;17.68;51.08;100828.58;117476;1186;21828;-51
2022/06/19 00:59:54;;;;;;;4.20;3.80;;;;;;;17.62;51.23;100831.09;117430;1181;22915;-57
2022/06/19 01:02:21;;;;;;;4.50;3.70;;;;;;;17.50;51.42;100835.05;117433;1182;22903;-51
2022/06/19 01:04:51;;;;;;;4.00;3.40;;;;;;;17.46;51.56;100836.96;117327;1186;22905;-50
2022/06/19 01:07:18;;;;;;;4.50;3.90;;;;;;;17.51;51.49;100836.80;117437;1180;22957;-51
2022/06/19 01:09:46;;;;;;;5.90;3.90;;;;;;;17.50;51.54;100843.37;117407;1186;21889;-57
2022/06/19 01:12:13;;;;;;;4.60;3.80;;;;;;;17.48;51.64;100842.03;117384;1186;22902;-51
2022/06/19 01:14:40;;;;;;;5.80;4.20;;;;;;;17.41;51.74;100843.16;117409;1186;22948;-57
2022/06/19 01:17:08;;;;;;;7.50;4.00;;;;;;;17.36;51.74;100840.86;117456;1182;22933;-51
2022/06/19 01:19:41;;;;;;;4.70;4.00;;;;;;;17.34;51.81;100846.42;117414;1183;21852;-51
2022/06/19 01:22:30;;;;;;;5.70;4.20;;;;;;;17.30;51.94;100850.24;117426;1183;21849;-51
2022/06/19 01:25:04;;;;;;;5.30;3.70;;;;;;;17.26;51.97;100850.20;117539;1186;23443;-51
2022/06/19 01:30:20;;;;;;;5.10;4.20;;;;;;;17.20;52.03;100847.22;117315;1186;23325;-57
2022/06/19 01:32:48;;;;;;;6.30;4.10;;;;;;;17.21;52.13;100848.08;117418;1186;21903;-56
2022/06/19 01:35:16;;;;;;;6.20;4.10;;;;;;;17.20;52.22;100847.75;117455;1182;24127;-56
2022/06/19 01:37:43;;;;;;;4.60;3.70;;;;;;;17.20;52.19;100851.30;117308;1181;22914;-57
2022/06/19 01:40:21;;;;;;;6.40;4.20;;;;;;;17.20;52.25;100847.92;117395;1185;23541;-50
2022/06/19 01:42:48;;;;;;;4.40;4.00;;;;;;;17.22;52.14;100845.92;117481;1184;21849;-56
2022/06/19 01:45:15;;;;;;;4.60;4.10;;;;;;;17.22;52.24;100843.77;117377;1183;23458;-57
2022/06/19 01:47:42;;;;;;;6.90;4.40;;;;;;;17.22;52.20;100846.27;117392;1185;24232;-57
2022/06/19 01:50:12;;;;;;;4.50;3.70;;;;;;;17.20;52.23;100845.61;117425;1182;23442;-50
2022/06/19 01:52:39;;;;;;;5.40;4.00;;;;;;;17.18;52.19;100849.05;117360;1185;21829;-50
2022/06/19 01:55:12;;;;;;;4.50;4.00;;;;;;;17.16;52.28;100850.20;117362;1185;22988;-50
2022/06/19 01:57:41;;;;;;;4.80;4.30;;;;;;;17.10;52.30;100853.20;117397;1186;21892;-57
2022/06/19 02:00:11;;;;;;;6.90;4.40;;;;;;;17.08;52.39;100852.39;117439;1182;23435;-50
2022/06/19 02:02:39;;;;;;;5.20;4.20;;;;;;;17.10;52.29;100847.54;117369;1184;22793;-56
2022/06/19 02:05:07;;;;;;;5.80;4.60;;;;;;;17.09;52.38;100850.04;117413;1186;23689;-57
2022/06/19 02:07:34;;;;;;;6.80;4.50;;;;;;;17.08;52.54;100849.36;117429;1186;21855;-50
2022/06/19 02:10:02;;;;;;;5.40;4.90;;;;;;;17.14;52.35;100853.27;117182;1184;22834;-50
2022/06/19 02:12:30;;;;;;;11.90;4.80;;;;;;;17.05;52.45;100856.39;117323;1185;24149;-50
2022/06/19 02:14:57;;;;;;;5.10;4.60;;;;;;;17.00;52.54;100855.83;117389;1184;21817;-50
2022/06/19 02:17:37;;;;;;;8.90;5.10;;;;;;;17.11;52.41;100860.09;117354;1181;22922;-50
2022/06/19 02:20:04;;;;;;;5.50;4.30;;;;;;;17.19;52.38;100860.91;117380;1182;23557;-50
2022/06/19 02:22:32;;;;;;;4.80;4.30;;;;;;;17.27;52.26;100863.13;117617;1185;21849;-57
2022/06/19 02:24:58;;;;;;;5.30;4.60;;;;;;;17.29;52.31;100862.72;117375;1182;24704;-57
2022/06/19 02:27:25;;;;;;;5.40;4.90;;;;;;;17.26;52.35;100867.05;117344;1185;21850;-57
2022/06/19 02:29:53;;;;;;;7.70;4.60;;;;;;;17.24;52.44;100869.07;117367;1185;22084;-50
2022/06/19 02:32:23;;;;;;;5.70;4.50;;;;;;;17.28;52.40;100869.48;117389;1182;21852;-50
2022/06/19 02:34:53;;;;;;;7.30;4.70;;;;;;;17.30;52.39;100869.27;117371;1182;23439;-57
2022/06/19 02:37:24;;;;;;;5.60;5.00;;;;;;;17.26;52.46;100865.66;117419;1185;22911;-50
2022/06/19 02:40:06;;;;;;;9.70;5.60;;;;;;;17.34;52.51;100867.33;117505;1184;24167;-50
2022/06/19 02:42:39;;;;;;;8.30;4.70;;;;;;;17.40;52.47;100859.90;117429;1180;22989;-57
2022/06/19 02:45:13;;;;;;;6.80;4.70;;;;;;;17.43;52.57;100860.33;117350;1182;23462;-50
2022/06/19 02:47:40;;;;;;;7.40;5.30;;;;;;;17.51;52.43;100855.27;117397;1180;22985;-56
2022/06/19 02:50:09;;;;;;;5.30;4.70;;;;;;;17.57;52.40;100854.89;117503;1183;23553;-50
2022/06/19 02:52:36;;;;;;;6.40;4.90;;;;;;;17.57;52.49;100855.94;117439;1186;21856;-50
2022/06/19 02:55:04;;;;;;;6.90;5.20;;;;;;;17.61;52.60;100860.61;117387;1183;23628;-53
2022/06/19 02:57:31;;;;;;;8.50;5.40;;;;;;;17.65;52.64;100862.77;117464;1186;23526;-50
2022/06/19 02:59:58;;;;;;;6.20;5.00;;;;;;;17.67;52.57;100863.95;117397;1180;21851;-57
2022/06/19 03:02:28;;;;;;;8.30;4.80;;;;;;;17.73;52.68;100864.80;117359;1183;23442;-50
2022/06/19 03:04:57;;;;;;;5.50;4.90;;;;;;;17.79;52.66;100862.30;117401;1186;21836;-57
2022/06/19 03:07:26;;;;;;;7.40;5.50;;;;;;;17.84;52.82;100866.21;117401;1185;24153;-57
2022/06/19 03:09:54;;;;;;;6.60;5.70;;;;;;;17.91;52.74;100869.31;117449;1186;21855;-51
2022/06/19 03:12:21;;;;;;;7.60;5.70;;;;;;;17.99;52.81;100872.79;117488;1188;23002;-56
2022/06/19 03:14:48;;;;;;;10.50;5.60;;;;;;;18.04;52.88;100875.30;117416;1185;23469;-51
2022/06/19 03:17:16;;;;;;;11.50;6.10;;;;;;;18.12;52.89;100872.67;117450;1186;23724;-57
2022/06/19 03:19:46;;;;;;;6.80;6.10;;;;;;;18.23;52.83;100878.73;117358;1182;21880;-52
2022/06/19 03:22:13;;;;;;;6.80;6.20;;;;;;;18.30;52.82;100879.70;117474;1182;22912;-51
2022/06/19 03:24:40;;;;;;;10.50;5.80;;;;;;;18.41;52.81;100880.72;117338;1185;23582;-51
2022/06/19 03:27:09;;;;;;;11.30;6.10;;;;;;;18.44;52.97;100883.63;117406;1185;21850;-55
2022/06/19 03:29:36;;;;;;;6.90;5.90;;;;;;;18.48;53.18;100884.02;117432;1182;23557;-51
2022/06/19 03:32:04;;;;;;;7.20;5.60;;;;;;;18.52;53.38;100887.09;117393;1184;22913;-52
2022/06/19 03:34:32;;;;;;;6.30;5.60;;;;;;;18.63;53.29;100890.39;117525;1188;24273;-56
2022/06/19 03:36:59;;;;;;;6.60;6.00;;;;;;;18.68;53.25;100889.48;117431;1186;23692;-52
2022/06/19 03:39:26;;;;;;;7.30;5.60;;;;;;;18.74;53.33;100887.66;117337;1186;22911;-56
2022/06/19 03:41:53;;;;;;;7.10;5.50;;;;;;;18.80;53.33;100894.16;117338;1184;23439;-53
2022/06/19 03:44:20;;;;;;;7.30;5.60;;;;;;;19.02;53.07;100895.13;117371;1185;23673;-53
2022/06/19 03:46:47;;;;;;;5.90;5.40;;;;;;;19.01;53.30;100896.04;117359;1186;23725;-51
2022/06/19 03:49:14;;;;;;;7.20;6.20;;;;;;;19.10;53.24;100898.77;117326;1186;21852;-52
2022/06/19 03:51:41;;;;;;;5.80;5.20;;;;;;;19.21;53.17;100897.96;117457;1186;21852;-51
2022/06/19 03:54:09;;;;;;;7.40;5.50;;;;;;;19.29;53.17;100898.02;117883;1183;22149;-53
2022/06/19 03:56:36;;;;;;;8.40;5.90;;;;;;;19.47;53.10;100897.63;117636;1183;22925;-52
2022/06/19 03:59:10;;;;;;;6.50;5.80;;;;;;;19.59;53.11;100901.95;117353;1185;22857;-57
2022/06/19 04:01:40;;;;;;;7.90;5.80;;;;;;;19.66;53.14;100897.38;117359;1186;21852;-53
2022/06/19 04:04:08;;;;;;;7.50;5.60;;;;;;;19.71;53.29;100902.33;117375;1186;21857;-57
2022/06/19 04:06:37;;;;;;;9.10;5.80;;;;;;;19.91;53.12;100905.95;117475;1183;21858;-52
2022/06/19 04:09:05;;;;;;;6.50;5.70;;;;;;;20.05;53.03;100908.20;117430;1182;23459;-52
2022/06/19 04:11:32;;;;;;;6.10;5.20;;;;;;;20.17;52.98;100905.36;117366;1182;22905;-52
2022/06/19 04:13:59;;;;;;;6.60;5.60;;;;;;;20.20;53.02;100906.48;117389;1184;24211;-52
2022/06/19 04:16:28;;;;;;;6.10;5.40;;;;;;;20.27;53.21;100903.87;117418;1183;22895;-56
2022/06/19 04:18:56;;;;;;;5.60;5.10;;;;;;;20.41;53.24;100901.47;117448;1183;21882;-57
2022/06/19 04:21:25;;;;;;;6.50;5.00;;;;;;;20.54;53.24;100905.16;117426;1188;21860;-52
2022/06/19 04:23:55;;;;;;;6.90;4.90;;;;;;;20.74;53.06;100905.14;117455;1183;23566;-52
2022/06/19 04:26:24;;;;;;;5.00;4.40;;;;;;;20.85;53.00;100903.80;117400;1186;22915;-56
2022/06/19 04:28:51;;;;;;;5.90;5.20;;;;;;;21.10;52.75;100901.88;117501;1186;21973;-56
2022/06/19 04:31:18;;;;;;;5.70;4.90;;;;;;;21.22;52.80;100903.09;117358;1186;22978;-57
2022/06/19 04:33:45;;;;;;;7.20;5.20;;;;;;;21.27;52.93;100900.33;117362;1185;21849;-52
2022/06/19 04:36:15;;;;;;;6.20;5.30;;;;;;;21.40;52.86;100901.83;117297;1183;23554;-53
2022/06/19 04:38:43;;;;;;;5.90;5.30;;;;;;;21.50;52.82;100906.91;117407;1182;22936;-57
2022/06/19 04:41:18;;;;;;;5.30;4.70;;;;;;;21.65;52.74;100909.22;117658;1183;21912;-58
2022/06/19 04:43:46;;;;;;;5.50;4.60;;;;;;;21.93;52.49;100904.77;117332;1186;21840;-54
2022/06/19 04:46:13;;;;;;;6.90;5.00;;;;;;;22.00;52.64;100906.89;117507;1183;22855;-54
2022/06/19 04:48:40;;;;;;;6.00;5.40;;;;;;;22.24;52.33;100910.32;117372;1184;21850;-54
2022/06/19 04:51:08;;;;;;;4.90;4.40;;;;;;;22.34;52.32;100913.92;117301;1185;23472;-54
2022/06/19 04:53:37;;;;;;;7.00;5.00;;;;;;;22.45;52.43;100914.75;117400;1182;24151;-54
2022/06/19 04:56:05;;;;;;;10.60;5.40;;;;;;;22.65;52.42;100917.83;117380;1184;22932;-57
2022/06/19 04:58:32;;;;;;;8.60;5.30;;;;;;;22.79;52.25;100919.54;117424;1188;23438;-57
2022/06/19 05:01:01;;;;;;;8.50;4.80;;;;;;;22.96;52.17;100923.45;117372;1182;22919;-56
2022/06/19 05:03:28;;;;;;;12.90;5.10;;;;;;;23.12;52.05;100920.96;117401;1186;22931;-54
2022/06/19 05:06:01;;;;;;;12.70;4.70;;;;;;;23.30;51.98;100920.69;117434;1186;21968;-57
2022/06/19 05:08:28;;;;;;;6.20;5.40;;;;;;;23.50;51.91;100921.34;117461;1182;22915;-58
2022/06/19 05:10:55;;;;;;;6.70;4.60;;;;;;;23.66;52.03;100922.05;117392;1182;22988;-54
2022/06/19 05:13:22;;;;;;;7.50;4.80;;;;;;;23.81;51.98;100923.47;117343;1183;23595;-54
2022/06/19 05:15:49;;;;;;;9.10;4.70;;;;;;;24.04;51.91;100922.13;117450;1180;22918;-55
2022/06/19 05:18:17;;;;;;;5.30;4.40;;;;;;;24.30;51.88;100923.61;117365;1185;22915;-57
2022/06/19 05:20:44;;;;;;;5.70;4.30;;;;;;;24.56;51.86;100922.58;117396;1186;23003;-56
2022/06/19 05:23:12;;;;;;;11.30;4.70;;;;;;;24.81;51.73;100919.57;117435;1183;22937;-54
2022/06/19 05:25:39;;;;;;;8.60;4.50;;;;;;;25.02;51.41;100922.38;117520;1182;22913;-54
2022/06/19 05:28:06;;;;;;;5.80;4.00;;;;;;;25.21;51.26;100920.59;117373;1182;23538;-55
2022/06/19 05:30:33;;;;;;;7.80;4.40;;;;;;;25.38;51.10;100918.06;117353;1182;22914;-54
2022/06/19 05:33:00;;;;;;;5.40;4.00;;;;;;;25.51;50.87;100913.84;117406;1183;24158;-55
2022/06/19 05:35:27;;;;;;;5.50;4.30;;;;;;;25.71;50.69;100917.38;117437;1186;22902;-55
2022/06/19 05:37:54;;;;;;;12.90;3.80;;;;;;;25.92;50.68;100909.10;117410;1183;23541;-54
2022/06/19 05:40:21;;;;;;;4.70;3.90;;;;;;;26.16;50.74;100906.24;117410;1186;21872;-54
2022/06/19 05:42:48;;;;;;;5.40;3.80;;;;;;;26.35;50.62;100909.59;117452;1183;21842;-57
2022/06/19 05:45:15;;;;;;;5.50;4.10;;;;;;;26.50;50.49;100906.55;117475;1180;22911;-57
2022/06/19 05:47:42;;;;;;;3.90;3.30;;;;;;;26.70;50.21;100909.46;117384;1186;22979;-55
2022/06/19 05:50:10;;;;;;;8.50;4.20;;;;;;;26.89;50.07;100906.91;117409;1186;22974;-57
2022/06/19 05:52:37;;;;;;;4.70;3.50;;;;;;;27.02;49.79;100907.37;117422;1186;21855;-56
2022/06/19 05:55:06;;;;;;;6.20;4.00;;;;;;;27.15;49.59;100904.77;117358;1180;22986;-55
2022/06/19 05:57:33;;;;;;;5.50;3.70;;;;;;;27.28;49.62;100904.52;117416;1185;22895;-57
2022/06/19 06:00:01;;;;;;;3.60;3.30;;;;;;;27.52;49.59;100905.15;117428;1182;22971;-57
2022/06/19 06:02:28;;;;;;;4.50;3.10;;;;;;;27.75;49.60;100903.95;117406;1183;22802;-56
2022/06/19 06:04:55;;;;;;;6.90;3.40;;;;;;;27.97;49.40;100901.70;117439;1182;23358;-56
2022/06/19 06:07:22;;;;;;;3.50;3.00;;;;;;;28.15;49.04;100900.15;117475;1182;21853;-54
2022/06/19 06:09:50;;;;;;;8.70;3.70;;;;;;;28.33;48.88;100898.77;117394;1185;21849;-56
2022/06/19 06:12:17;;;;;;;3.20;2.80;;;;;;;28.56;48.83;100896.57;117384;1186;21887;-55
2022/06/19 06:14:44;;;;;;;4.20;2.90;;;;;;;28.72;48.34;100895.31;117390;1184;23538;-55
2022/06/19 06:17:11;;;;;;;3.20;2.90;;;;;;;28.82;48.40;100893.60;117403;1181;22909;-58
2022/06/19 06:19:38;;;;;;;5.50;3.00;;;;;;;28.99;48.28;100891.52;117348;1185;22803;-55
2022/06/19 06:22:05;;;;;;;4.00;2.70;;;;;;;29.15;47.96;100893.48;117336;1183;21993;-55
2022/06/19 06:24:33;;;;;;;5.90;3.00;;;;;;;29.32;47.68;100890.09;117275;1185;22619;-55
2022/06/19 06:27:05;;;;;;;6.00;2.80;;;;;;;29.51;47.58;100888.89;117490;1183;22079;-55
2022/06/19 06:29:33;;;;;;;4.50;2.80;;;;;;;29.75;47.50;100890.99;117405;1183;23740;-55
2022/06/19 06:32:00;;;;;;;3.40;2.70;;;;;;;30.01;47.37;100884.33;117414;1182;23333;-55
2022/06/19 06:34:27;;;;;;;5.10;2.40;;;;;;;30.19;47.06;100882.52;117360;1185;24174;-55
2022/06/19 06:36:54;;;;;;;12.40;3.30;;;;;;;30.42;47.01;100880.59;117468;1183;22976;-56
2022/06/19 06:39:21;;;;;;;3.00;2.40;;;;;;;30.59;46.60;100878.91;117399;1186;23542;-55
2022/06/19 06:41:48;;;;;;;4.00;2.40;;;;;;;30.75;46.57;100881.10;117333;1182;21960;-54
2022/06/19 06:44:15;;;;;;;3.10;2.00;;;;;;;30.84;46.30;100878.98;117448;1179;23541;-54
2022/06/19 06:46:42;;;;;;;4.40;2.10;;;;;;;31.00;46.19;100876.89;117440;1186;21870;-54
2022/06/19 06:49:10;;;;;;;8.30;2.40;;;;;;;31.23;45.88;100876.61;117387;1185;22902;-55
2022/06/19 06:51:37;;;;;;;3.80;2.30;;;;;;;31.44;45.33;100872.86;117431;1186;21854;-57
2022/06/19 06:54:04;;;;;;;4.30;2.30;;;;;;;31.58;45.00;100870.45;117358;1182;23030;-54
2022/06/19 06:56:32;;;;;;;2.80;2.20;;;;;;;31.73;45.00;100871.02;117340;1184;23572;-54
2022/06/19 06:59:00;;;;;;;2.10;1.70;;;;;;;31.94;44.98;100869.48;117395;1186;22937;-57
2022/06/19 07:01:30;;;;;;;4.40;2.00;;;;;;;32.10;44.76;100872.12;117360;1185;21881;-57
2022/06/19 07:03:59;;;;;;;17.70;4.60;;;;;;;32.21;44.44;100870.40;117511;1185;21834;-54
2022/06/19 07:06:28;;;;;;;4.50;2.20;;;;;;;32.31;44.09;100871.21;117357;1185;22942;-54
2022/06/19 07:08:55;;;;;;;3.40;1.60;;;;;;;32.35;43.89;100871.59;117360;1183;21839;-57
2022/06/19 07:11:36;;;;;;;48.00;42.80;;;;;;;32.56;43.71;100869.05;117373;1186;23540;-55
2022/06/19 07:14:04;;;;;;;8.00;7.20;;;;;;;32.73;43.22;100866.90;117400;1185;22967;-55
2022/06/19 07:16:31;;;;;;;4.80;3.40;;;;;;;32.78;43.44;100868.26;117435;1186;22722;-55
2022/06/19 07:18:58;;;;;;;3.20;1.90;;;;;;;32.87;43.41;100866.71;117342;1185;21843;-55
2022/06/19 07:21:25;;;;;;;3.40;2.00;;;;;;;33.02;42.91;100865.77;117386;1182;23539;-55
2022/06/19 07:23:52;;;;;;;2.80;1.90;;;;;;;33.13;42.42;100865.93;117506;1182;21845;-57
2022/06/19 07:26:20;;;;;;;4.50;1.80;;;;;;;33.24;42.85;100866.64;117364;1185;23007;-57
2022/06/19 07:28:48;;;;;;;2.60;1.90;;;;;;;33.38;42.48;100866.17;117362;1183;23906;-56
2022/06/19 07:31:23;;;;;;;2.00;1.40;;;;;;;33.55;42.29;100864.52;117408;1186;21851;-57
2022/06/19 07:33:51;;;;;;;9.90;2.30;;;;;;;33.73;42.20;100860.73;117405;1186;23436;-55
2022/06/19 07:36:21;;;;;;;12.20;4.20;;;;;;;33.95;42.03;100856.77;117341;1185;21860;-55
2022/06/19 07:38:48;;;;;;;10.80;3.80;;;;;;;34.14;41.69;100852.77;117349;1182;21879;-54
2022/06/19 07:41:15;;;;;;;6.80;2.90;;;;;;;34.26;41.33;100853.64;118865;1182;23582;-55
2022/06/19 07:43:45;;;;;;;14.50;3.70;;;;;;;34.40;41.16;100858.92;117405;1185;23651;-54
2022/06/19 07:46:13;;;;;;;14.60;5.30;;;;;;;34.57;40.83;100855.84;117387;1186;22893;-55
2022/06/19 07:51:26;;;;;;;5.50;2.00;;;;;;;34.93;40.50;100858.56;118201;1186;22912;-57
2022/06/19 07:53:58;;;;;;;12.00;9.00;;;;;;;34.98;40.17;100857.73;117391;1186;21867;-55
2022/06/19 07:56:25;;;;;;;7.30;3.90;;;;;;;35.09;40.13;100856.52;117359;1185;22912;-56
2022/06/19 07:58:52;;;;;;;4.00;2.20;;;;;;;35.31;40.16;100859.20;117391;1184;21867;-57
2022/06/19 08:01:19;;;;;;;5.20;1.90;;;;;;;35.52;39.91;100861.32;117365;1183;23624;-55
2022/06/19 08:03:46;;;;;;;1.40;1.30;;;;;;;35.69;39.62;100859.09;117397;1182;21856;-55
2022/06/19 08:06:15;;;;;;;1.90;1.60;;;;;;;35.81;39.34;100857.29;117415;1185;22904;-56
2022/06/19 08:08:42;;;;;;;3.20;1.20;;;;;;;35.91;38.93;100853.16;117483;1184;24276;-55
2022/06/19 08:11:10;;;;;;;15.20;3.50;;;;;;;36.05;38.98;100850.14;117365;1182;23550;-54
2022/06/19 08:13:38;;;;;;;3.20;1.50;;;;;;;36.20;38.76;100848.61;117334;1185;22925;-56
2022/06/19 08:16:08;;;;;;;4.90;1.60;;;;;;;36.29;38.45;100850.13;117425;1183;23435;-54
2022/06/19 08:18:36;;;;;;;3.00;1.60;;;;;;;36.35;38.27;100847.47;117403;1186;21850;-55
2022/06/19 08:21:03;;;;;;;5.60;3.70;;;;;;;36.43;38.20;100842.13;117432;1183;22092;-56
2022/06/19 08:23:30;;;;;;;3.10;1.80;;;;;;;36.54;38.05;100837.41;117128;1182;21851;-56
2022/06/19 08:25:58;;;;;;;2.60;1.40;;;;;;;36.80;37.90;100837.41;117358;1186;21852;-55
2022/06/19 08:31:10;;;;;;;3.10;2.10;;;;;;;37.13;37.29;100832.27;117364;1183;22913;-53
2022/06/19 08:33:37;;;;;;;3.90;1.90;;;;;;;37.31;37.00;100831.95;117405;1183;23541;-55
2022/06/19 08:36:06;;;;;;;3.40;1.40;;;;;;;37.43;36.53;100830.07;117401;1182;22933;-54
2022/06/19 08:38:35;;;;;;;3.30;1.20;;;;;;;37.51;36.42;100830.52;118427;1183;21865;-56
2022/06/19 08:41:26;;;;;;;12.00;2.40;;;;;;;37.64;36.16;100831.15;117360;1183;22812;-54
2022/06/19 08:44:14;;;;;;;1.60;0.90;;;;;;;37.82;35.90;100829.86;117281;1182;21856;-55
2022/06/19 08:46:45;;;;;;;1.30;0.80;;;;;;;37.95;35.45;100825.91;117398;1186;22172;-54
2022/06/19 08:49:21;;;;;;;;;;;;;;;37.97;35.18;100824.93;117406;1188;21826;-55
2022/06/19 08:52:09;;;;;;;1.70;0.90;;;;;;;37.92;34.90;100822.23;117353;1183;23488;-55
2022/06/19 08:55:17;;;;;;;1.30;0.90;;;;;;;37.96;34.85;100820.86;117412;1183;22911;-54
2022/06/19 08:58:14;;;;;;;1.50;0.80;;;;;;;38.15;34.71;100817.09;117399;1185;22608;-57
2022/06/19 09:00:56;;;;;;;1.90;0.80;;;;;;;38.46;33.93;100812.65;117378;1186;21878;-57
2022/06/19 09:06:34;;;;;;;2.00;1.10;;;;;;;39.12;33.41;100818.83;117418;1184;21869;-55
2022/06/19 09:09:41;;;;;;;5.10;1.90;;;;;;;39.28;33.47;100816.73;117405;1185;22905;-55
2022/06/19 09:12:21;;;;;;;2.20;1.00;;;;;;;39.36;33.29;100815.33;117249;1185;21897;-55
2022/06/19 09:14:57;;;;;;;2.70;1.00;;;;;;;39.39;34.40;100817.31;117381;1183;23928;-55
2022/06/19 09:17:24;;;;;;;2.30;0.80;;;;;;;39.38;37.02;100817.77;117421;1185;22956;-55
2022/06/19 09:19:52;;;;;;;4.30;1.00;;;;;;;39.42;41.96;100815.30;117229;1182;23609;-55
2022/06/19 09:22:46;;;;;;;5.60;1.00;;;;;;;39.46;44.03;100812.08;117422;1186;21867;-55
2022/06/19 09:25:20;;;;;;;2.10;0.90;;;;;;;39.40;39.33;100811.10;117324;1186;21894;-56
2022/06/19 09:27:56;;;;;;;1.40;1.10;;;;;;;39.54;36.33;100809.76;117409;1184;22918;-56
2022/06/19 09:30:34;;;;;;;2.50;1.40;;;;;;;39.76;35.14;100808.78;117444;1186;22824;-55
2022/06/19 09:33:07;;;;;;;1.10;0.70;;;;;;;39.95;35.01;100812.25;117273;1185;21862;-55
2022/06/19 09:35:41;;;;;;;1.80;0.80;;;;;;;40.02;45.03;100811.61;117382;1186;22914;-56
2022/06/19 09:38:23;;;;;;;0.90;0.70;;;;;;;40.24;47.34;100806.27;117348;1185;21851;-56
2022/06/19 09:40:53;;;;;;;2.60;0.80;;;;;;;40.22;55.63;100807.59;118030;1183;22967;-56
2022/06/19 09:43:43;;;;;;;2.40;0.90;;;;;;;40.34;56.52;100802.41;119094;1186;21862;-56
2022/06/19 09:46:22;;;;;;;1.00;0.70;;;;;;;40.50;50.05;100797.55;117409;1185;21960;-55
2022/06/19 09:49:00;;;;;;;2.30;1.40;;;;;;;40.66;46.71;100796.64;117339;1183;21848;-54
2022/06/19 09:51:30;;;;;;;1.70;1.10;;;;;;;40.77;44.87;100803.24;117350;1186;23588;-54
2022/06/19 09:53:59;;;;;;;2.60;0.80;;;;;;;40.56;46.65;100806.85;117363;1186;21883;-55
2022/06/19 09:56:50;;;;;;;0.80;0.70;;;;;;;40.69;46.27;100799.77;117361;1186;21858;-53
2022/06/19 09:59:26;;;;;;;1.30;0.90;;;;;;;40.90;44.94;100801.17;117423;1185;22902;-54
2022/06/19 10:01:58;;;;;;;2.70;1.10;;;;;;;40.99;45.07;100798.35;117351;1183;21951;-55
2022/06/19 10:04:37;;;;;;;1.10;0.90;;;;;;;41.05;42.96;100794.49;117401;1186;21861;-54
2022/06/19 10:07:29;;;;;;;1.70;0.80;;;;;;;41.12;46.14;100788.65;117274;1183;22153;-55
2022/06/19 10:09:59;;;;;;;2.00;1.00;;;;;;;41.32;43.85;100786.10;117205;1186;23573;-54
2022/06/19 10:12:35;;;;;;;3.80;0.90;;;;;;;41.27;40.61;100785.94;117823;1186;22857;-55
2022/06/19 10:15:06;;;;;;;1.10;1.00;;;;;;;41.07;38.67;100786.94;117506;1184;22914;-54
2022/06/19 10:17:55;;;;;;;1.90;1.00;;;;;;;40.85;37.34;100784.23;117359;1185;23553;-54
2022/06/19 10:20:47;;;;;;;2.70;1.10;;;;;;;40.65;36.42;100783.94;117441;1186;22591;-53
2022/06/19 10:23:58;;;;;;;2.10;1.00;;;;;;;40.43;44.71;100781.95;117298;1179;24170;-55
2022/06/19 10:27:00;;;;;;;1.30;0.90;;;;;;;40.40;48.27;100776.82;116638;1189;22947;-54
2022/06/19 10:29:51;;;;;;;2.60;1.00;;;;;;;40.44;46.84;100778.27;116971;1185;23553;-53
2022/06/19 10:32:40;;;;;;;4.10;1.20;;;;;;;40.66;49.79;100776.86;117351;1180;22932;-54
2022/06/19 10:35:25;;;;;;;1.30;1.00;;;;;;;40.81;48.54;100776.04;117429;1182;22163;-54
2022/06/19 10:38:14;;;;;;;2.50;1.30;;;;;;;40.68;50.36;100772.44;117402;1183;23681;-54
2022/06/19 10:40:56;;;;;;;1.70;0.90;;;;;;;40.64;41.07;100764.41;117354;1185;21856;-55
2022/06/19 10:43:38;;;;;;;1.50;1.00;;;;;;;41.06;38.36;100766.21;117321;1185;21840;-55
2022/06/19 10:46:07;;;;;;;1.20;0.80;;;;;;;41.55;38.01;100765.40;117338;1186;21841;-55
2022/06/19 10:48:45;;;;;;;2.60;0.90;;;;;;;41.67;46.85;100759.94;117395;1185;22972;-54
2022/06/19 10:51:34;;;;;;;1.10;0.70;;;;;;;42.03;43.07;100756.86;117456;1183;22985;-55
2022/06/19 10:54:22;;;;;;;1.20;0.80;;;;;;;41.83;48.00;100762.28;117394;1182;21917;-54
2022/06/19 10:57:18;;;;;;;1.40;0.80;;;;;;;41.73;43.62;100754.61;117366;1186;21857;-55
2022/06/19 10:59:46;;;;;;;1.20;0.80;;;;;;;41.73;37.02;100753.05;117366;1184;21859;-55
2022/06/19 11:05:20;;;;;;;1.00;0.80;;;;;;;41.68;34.98;100750.23;117384;1186;23432;-55
2022/06/19 11:07:47;;;;;;;2.10;0.80;;;;;;;41.96;33.09;100751.65;117429;1182;21857;-55
2022/06/19 11:10:32;;;;;;;1.30;0.70;;;;;;;41.99;32.28;100753.43;117377;1180;21858;-55
2022/06/19 11:13:05;;;;;;;2.30;1.00;;;;;;;41.66;34.60;100761.55;117333;1183;23553;-55
2022/06/19 11:15:41;;;;;;;;;;;;;;;41.29;35.82;100759.27;117478;1182;21885;-55
2022/06/19 11:18:19;;;;;;;1.30;0.80;;;;;;;41.35;32.12;100758.08;117341;1185;21956;-55
2022/06/19 11:21:06;;;;;;;3.30;0.80;;;;;;;41.30;30.68;100749.92;117356;1184;22914;-55
2022/06/19 11:23:38;;;;;;;1.30;0.90;;;;;;;41.44;30.74;100748.02;117244;1183;23662;-55
2022/06/19 11:26:18;;;;;;;2.20;1.00;;;;;;;41.62;29.67;100752.57;117247;1185;21850;-54
2022/06/19 11:28:48;;;;;;;4.50;0.90;;;;;;;41.49;29.46;100753.20;117362;1186;21961;-54
2022/06/19 11:31:27;;;;;;;1.50;1.10;;;;;;;41.11;29.60;100758.82;117355;1186;21852;-55
2022/06/19 11:37:23;;;;;;;0.80;0.70;;;;;;;40.26;29.04;100756.73;117341;1186;22110;-55
2022/06/19 11:39:57;;;;;;;1.20;0.70;;;;;;;40.17;28.93;100749.18;117289;1183;21853;-56
2022/06/19 11:42:36;;;;;;;1.10;0.90;;;;;;;40.26;27.45;100748.85;117214;1185;21855;-55
2022/06/19 11:45:12;;;;;;;5.80;1.20;;;;;;;40.27;27.61;100746.61;117298;1183;21842;-55
2022/06/19 11:47:41;;;;;;;2.60;1.00;;;;;;;40.38;27.30;100739.45;117281;1184;21858;-54
2022/06/19 11:50:28;;;;;;;1.80;1.00;;;;;;;40.30;26.91;100739.72;117298;1182;24196;-55
2022/06/19 11:53:02;;;;;;;2.40;0.80;;;;;;;40.21;26.82;100744.16;117332;1183;22909;-54